sensor_id;sensor_type;location;lat;lon;timestamp;P1;durP1;ratioP1;P2;durP2;ratioP2
19897;SDS011;10111;50.814;4.572;2023-04-01T00:00:25;3.90;;;1.50;;
19897;SDS011;10111;50.814;4.572;2023-04-01T00:02:50;4.17;;;1.60;;
19897;SDS011;10111;50.814;4.572;2023-04-01T00:05:16;3.57;;;1.20;;
19897;SDS011;10111;50.814;4.572;2023-04-01T00:07:42;3.73;;;1.33;;
19897;SDS011;10111;50.814;4.572;2023-04-01T00:10:09;2.37;;;1.10;;
19897;SDS011;10111;50.814;4.572;2023-04-01T00:12:37;7.30;;;1.50;;
19897;SDS011;10111;50.814;4.572;2023-04-01T00:15:04;6.90;;;1.40;;
19897;SDS011;10111;50.814;4.572;2023-04-01T00:17:31;5.20;;;1.40;;
19897;SDS011;10111;50.814;4.572;2023-04-01T00:19:57;3.83;;;1.50;;
19897;SDS011;10111;50.814;4.572;2023-04-01T00:22:23;3.80;;;1.53;;
19897;SDS011;10111;50.814;4.572;2023-04-01T00:24:49;5.93;;;1.57;;
19897;SDS011;10111;50.814;4.572;2023-04-01T00:27:15;7.90;;;1.40;;
19897;SDS011;10111;50.814;4.572;2023-04-01T00:29:44;4.47;;;1.50;;
19897;SDS011;10111;50.814;4.572;2023-04-01T00:32:11;6.97;;;1.40;;
19897;SDS011;10111;50.814;4.572;2023-04-01T00:34:37;1.90;;;1.03;;
19897;SDS011;10111;50.814;4.572;2023-04-01T00:37:04;4.73;;;1.47;;
19897;SDS011;10111;50.814;4.572;2023-04-01T00:39:31;3.03;;;1.50;;
19897;SDS011;10111;50.814;4.572;2023-04-01T00:41:58;3.70;;;1.20;;
19897;SDS011;10111;50.814;4.572;2023-04-01T00:44:25;2.80;;;1.47;;
19897;SDS011;10111;50.814;4.572;2023-04-01T00:46:53;3.87;;;1.37;;
19897;SDS011;10111;50.814;4.572;2023-04-01T00:49:20;4.13;;;1.20;;
19897;SDS011;10111;50.814;4.572;2023-04-01T00:51:51;3.87;;;1.40;;
19897;SDS011;10111;50.814;4.572;2023-04-01T00:54:21;1.90;;;1.10;;
19897;SDS011;10111;50.814;4.572;2023-04-01T00:56:53;2.13;;;1.60;;
19897;SDS011;10111;50.814;4.572;2023-04-01T00:59:33;1.87;;;1.00;;
19897;SDS011;10111;50.814;4.572;2023-04-01T01:02:02;2.20;;;0.87;;
19897;SDS011;10111;50.814;4.572;2023-04-01T01:04:32;1.53;;;0.90;;
19897;SDS011;10111;50.814;4.572;2023-04-01T01:07:14;2.57;;;0.90;;
19897;SDS011;10111;50.814;4.572;2023-04-01T01:18:47;1.43;;;0.80;;
19897;SDS011;10111;50.814;4.572;2023-04-01T01:23:56;1.00;;;0.90;;
19897;SDS011;10111;50.814;4.572;2023-04-01T01:37:44;1.17;;;0.90;;
19897;SDS011;10111;50.814;4.572;2023-04-01T01:40:12;4.20;;;0.97;;
19897;SDS011;10111;50.814;4.572;2023-04-01T01:42:40;1.70;;;1.17;;
19897;SDS011;10111;50.814;4.572;2023-04-01T01:45:10;2.33;;;1.30;;
19897;SDS011;10111;50.814;4.572;2023-04-01T01:47:39;3.27;;;1.20;;
19897;SDS011;10111;50.814;4.572;2023-04-01T01:50:06;1.60;;;1.13;;
19897;SDS011;10111;50.814;4.572;2023-04-01T01:52:34;2.30;;;2.10;;
19897;SDS011;10111;50.814;4.572;2023-04-01T01:55:00;1.43;;;1.33;;
19897;SDS011;10111;50.814;4.572;2023-04-01T01:57:30;4.10;;;2.13;;
19897;SDS011;10111;50.814;4.572;2023-04-01T02:00:00;2.17;;;1.90;;
19897;SDS011;10111;50.814;4.572;2023-04-01T02:02:40;4.33;;;1.70;;
19897;SDS011;10111;50.814;4.572;2023-04-01T02:05:09;2.57;;;1.70;;
19897;SDS011;10111;50.814;4.572;2023-04-01T02:07:36;8.10;;;2.23;;
19897;SDS011;10111;50.814;4.572;2023-04-01T02:10:04;5.10;;;2.00;;
19897;SDS011;10111;50.814;4.572;2023-04-01T02:12:31;3.63;;;2.17;;
19897;SDS011;10111;50.814;4.572;2023-04-01T02:15:03;5.63;;;2.70;;
19897;SDS011;10111;50.814;4.572;2023-04-01T02:17:34;5.80;;;2.63;;
19897;SDS011;10111;50.814;4.572;2023-04-01T02:22:34;6.90;;;2.70;;
19897;SDS011;10111;50.814;4.572;2023-04-01T02:25:11;9.47;;;3.17;;
19897;SDS011;10111;50.814;4.572;2023-04-01T02:27:39;3.10;;;2.50;;
19897;SDS011;10111;50.814;4.572;2023-04-01T02:30:07;5.30;;;3.37;;
19897;SDS011;10111;50.814;4.572;2023-04-01T02:32:33;3.57;;;1.73;;
19897;SDS011;10111;50.814;4.572;2023-04-01T02:35:03;5.10;;;3.00;;
19897;SDS011;10111;50.814;4.572;2023-04-01T02:37:35;4.87;;;3.03;;
19897;SDS011;10111;50.814;4.572;2023-04-01T02:40:02;4.73;;;2.57;;
19897;SDS011;10111;50.814;4.572;2023-04-01T02:42:31;4.97;;;2.50;;
19897;SDS011;10111;50.814;4.572;2023-04-01T02:44:57;6.53;;;3.03;;
19897;SDS011;10111;50.814;4.572;2023-04-01T02:47:22;7.87;;;3.27;;
19897;SDS011;10111;50.814;4.572;2023-04-01T02:49:48;7.30;;;2.87;;
19897;SDS011;10111;50.814;4.572;2023-04-01T02:52:14;4.50;;;2.73;;
19897;SDS011;10111;50.814;4.572;2023-04-01T02:54:39;4.27;;;2.97;;
19897;SDS011;10111;50.814;4.572;2023-04-01T02:57:05;4.07;;;2.73;;
19897;SDS011;10111;50.814;4.572;2023-04-01T02:59:31;6.37;;;3.63;;
19897;SDS011;10111;50.814;4.572;2023-04-01T03:01:57;14.47;;;4.10;;
19897;SDS011;10111;50.814;4.572;2023-04-01T03:04:23;4.27;;;2.90;;
19897;SDS011;10111;50.814;4.572;2023-04-01T03:06:49;4.17;;;2.20;;
19897;SDS011;10111;50.814;4.572;2023-04-01T03:09:15;4.90;;;2.40;;
19897;SDS011;10111;50.814;4.572;2023-04-01T03:11:41;7.23;;;2.80;;
19897;SDS011;10111;50.814;4.572;2023-04-01T03:14:06;4.00;;;2.43;;
19897;SDS011;10111;50.814;4.572;2023-04-01T03:16:32;6.93;;;3.50;;
19897;SDS011;10111;50.814;4.572;2023-04-01T03:18:58;4.00;;;2.60;;
19897;SDS011;10111;50.814;4.572;2023-04-01T03:21:25;2.50;;;2.30;;
19897;SDS011;10111;50.814;4.572;2023-04-01T03:23:51;4.80;;;3.33;;
19897;SDS011;10111;50.814;4.572;2023-04-01T03:26:17;3.90;;;2.70;;
19897;SDS011;10111;50.814;4.572;2023-04-01T03:28:43;5.70;;;3.10;;
19897;SDS011;10111;50.814;4.572;2023-04-01T03:31:09;5.80;;;2.27;;
19897;SDS011;10111;50.814;4.572;2023-04-01T03:33:35;4.13;;;2.90;;
19897;SDS011;10111;50.814;4.572;2023-04-01T03:36:01;5.60;;;2.60;;
19897;SDS011;10111;50.814;4.572;2023-04-01T03:38:31;5.13;;;3.30;;
19897;SDS011;10111;50.814;4.572;2023-04-01T03:40:59;4.47;;;2.90;;
19897;SDS011;10111;50.814;4.572;2023-04-01T03:43:25;5.27;;;3.47;;
19897;SDS011;10111;50.814;4.572;2023-04-01T03:45:51;5.03;;;3.43;;
19897;SDS011;10111;50.814;4.572;2023-04-01T03:48:17;9.43;;;3.53;;
19897;SDS011;10111;50.814;4.572;2023-04-01T03:50:43;5.60;;;3.10;;
19897;SDS011;10111;50.814;4.572;2023-04-01T03:53:10;5.80;;;3.63;;
19897;SDS011;10111;50.814;4.572;2023-04-01T03:55:36;7.03;;;4.33;;
19897;SDS011;10111;50.814;4.572;2023-04-01T03:58:03;12.70;;;5.60;;
19897;SDS011;10111;50.814;4.572;2023-04-01T04:00:29;13.90;;;4.97;;
19897;SDS011;10111;50.814;4.572;2023-04-01T04:02:55;5.90;;;4.57;;
19897;SDS011;10111;50.814;4.572;2023-04-01T04:05:25;9.03;;;5.27;;
19897;SDS011;10111;50.814;4.572;2023-04-01T04:07:51;7.10;;;5.23;;
19897;SDS011;10111;50.814;4.572;2023-04-01T04:10:18;13.83;;;4.80;;
19897;SDS011;10111;50.814;4.572;2023-04-01T04:12:44;11.20;;;5.73;;
19897;SDS011;10111;50.814;4.572;2023-04-01T04:15:10;7.97;;;4.83;;
19897;SDS011;10111;50.814;4.572;2023-04-01T04:17:36;10.33;;;4.90;;
19897;SDS011;10111;50.814;4.572;2023-04-01T04:20:02;9.80;;;5.40;;
19897;SDS011;10111;50.814;4.572;2023-04-01T04:22:29;10.73;;;5.57;;
19897;SDS011;10111;50.814;4.572;2023-04-01T04:24:54;6.90;;;4.23;;
19897;SDS011;10111;50.814;4.572;2023-04-01T04:27:20;8.57;;;4.50;;
19897;SDS011;10111;50.814;4.572;2023-04-01T04:29:46;10.67;;;5.30;;
19897;SDS011;10111;50.814;4.572;2023-04-01T04:32:11;7.47;;;4.80;;
19897;SDS011;10111;50.814;4.572;2023-04-01T04:34:37;9.90;;;4.30;;
19897;SDS011;10111;50.814;4.572;2023-04-01T04:37:03;7.33;;;4.27;;
19897;SDS011;10111;50.814;4.572;2023-04-01T04:39:29;5.50;;;4.03;;
19897;SDS011;10111;50.814;4.572;2023-04-01T04:41:55;7.30;;;3.67;;
19897;SDS011;10111;50.814;4.572;2023-04-01T04:44:20;8.90;;;4.10;;
19897;SDS011;10111;50.814;4.572;2023-04-01T04:46:46;5.83;;;3.50;;
19897;SDS011;10111;50.814;4.572;2023-04-01T04:49:12;4.13;;;3.23;;
19897;SDS011;10111;50.814;4.572;2023-04-01T04:51:38;5.97;;;2.80;;
19897;SDS011;10111;50.814;4.572;2023-04-01T04:54:04;5.20;;;3.10;;
19897;SDS011;10111;50.814;4.572;2023-04-01T04:56:31;3.30;;;2.77;;
19897;SDS011;10111;50.814;4.572;2023-04-01T04:58:57;5.63;;;2.67;;
19897;SDS011;10111;50.814;4.572;2023-04-01T05:01:23;5.67;;;2.93;;
19897;SDS011;10111;50.814;4.572;2023-04-01T05:03:49;4.57;;;2.83;;
19897;SDS011;10111;50.814;4.572;2023-04-01T05:06:16;4.50;;;3.73;;
19897;SDS011;10111;50.814;4.572;2023-04-01T05:08:43;7.00;;;2.87;;
19897;SDS011;10111;50.814;4.572;2023-04-01T05:11:10;4.67;;;2.80;;
19897;SDS011;10111;50.814;4.572;2023-04-01T05:13:38;3.93;;;3.00;;
19897;SDS011;10111;50.814;4.572;2023-04-01T05:16:07;5.43;;;2.97;;
19897;SDS011;10111;50.814;4.572;2023-04-01T05:18:37;3.50;;;2.70;;
19897;SDS011;10111;50.814;4.572;2023-04-01T05:21:03;3.50;;;2.63;;
19897;SDS011;10111;50.814;4.572;2023-04-01T05:23:31;3.03;;;2.27;;
19897;SDS011;10111;50.814;4.572;2023-04-01T05:25:57;4.23;;;2.90;;
19897;SDS011;10111;50.814;4.572;2023-04-01T05:28:23;4.77;;;2.70;;
19897;SDS011;10111;50.814;4.572;2023-04-01T05:30:49;4.13;;;2.90;;
19897;SDS011;10111;50.814;4.572;2023-04-01T05:33:15;4.20;;;3.43;;
19897;SDS011;10111;50.814;4.572;2023-04-01T05:35:41;3.37;;;3.07;;
19897;SDS011;10111;50.814;4.572;2023-04-01T05:38:07;4.70;;;3.23;;
19897;SDS011;10111;50.814;4.572;2023-04-01T05:40:33;9.53;;;3.37;;
19897;SDS011;10111;50.814;4.572;2023-04-01T05:42:59;4.73;;;3.93;;
19897;SDS011;10111;50.814;4.572;2023-04-01T05:45:25;6.73;;;3.50;;
19897;SDS011;10111;50.814;4.572;2023-04-01T05:47:51;4.57;;;2.87;;
19897;SDS011;10111;50.814;4.572;2023-04-01T05:50:17;7.47;;;3.93;;
19897;SDS011;10111;50.814;4.572;2023-04-01T05:52:43;8.63;;;4.13;;
19897;SDS011;10111;50.814;4.572;2023-04-01T05:55:09;7.40;;;4.57;;
19897;SDS011;10111;50.814;4.572;2023-04-01T05:57:35;9.63;;;6.20;;
19897;SDS011;10111;50.814;4.572;2023-04-01T06:00:01;8.40;;;4.63;;
19897;SDS011;10111;50.814;4.572;2023-04-01T06:02:27;6.73;;;4.10;;
19897;SDS011;10111;50.814;4.572;2023-04-01T06:04:54;6.67;;;4.47;;
19897;SDS011;10111;50.814;4.572;2023-04-01T06:07:36;7.00;;;4.03;;
19897;SDS011;10111;50.814;4.572;2023-04-01T06:10:05;6.50;;;4.50;;
19897;SDS011;10111;50.814;4.572;2023-04-01T06:18:00;8.13;;;4.90;;
19897;SDS011;10111;50.814;4.572;2023-04-01T06:29:10;10.57;;;5.60;;
19897;SDS011;10111;50.814;4.572;2023-04-01T06:37:54;8.27;;;5.07;;
19897;SDS011;10111;50.814;4.572;2023-04-01T06:43:27;10.37;;;4.77;;
19897;SDS011;10111;50.814;4.572;2023-04-01T06:49:13;8.67;;;5.00;;
19897;SDS011;10111;50.814;4.572;2023-04-01T06:54:29;9.70;;;5.03;;
19897;SDS011;10111;50.814;4.572;2023-04-01T06:56:58;6.77;;;5.00;;
19897;SDS011;10111;50.814;4.572;2023-04-01T06:59:32;9.07;;;5.00;;
19897;SDS011;10111;50.814;4.572;2023-04-01T07:02:15;13.20;;;6.17;;
19897;SDS011;10111;50.814;4.572;2023-04-01T07:04:48;8.07;;;4.73;;
19897;SDS011;10111;50.814;4.572;2023-04-01T07:10:52;11.10;;;5.63;;
19897;SDS011;10111;50.814;4.572;2023-04-01T07:13:05;10.87;;;4.73;;
19897;SDS011;10111;50.814;4.572;2023-04-01T07:15:37;9.47;;;5.10;;
19897;SDS011;10111;50.814;4.572;2023-04-01T07:18:14;6.37;;;4.60;;
19897;SDS011;10111;50.814;4.572;2023-04-01T07:20:48;7.43;;;5.20;;
19897;SDS011;10111;50.814;4.572;2023-04-01T07:23:20;9.27;;;4.30;;
19897;SDS011;10111;50.814;4.572;2023-04-01T07:25:52;5.17;;;3.20;;
19897;SDS011;10111;50.814;4.572;2023-04-01T07:28:21;5.33;;;3.73;;
19897;SDS011;10111;50.814;4.572;2023-04-01T07:38:45;4.27;;;3.30;;
19897;SDS011;10111;50.814;4.572;2023-04-01T07:46:55;6.87;;;3.23;;
19897;SDS011;10111;50.814;4.572;2023-04-01T07:52:14;3.43;;;2.00;;
19897;SDS011;10111;50.814;4.572;2023-04-01T07:55:00;3.07;;;2.03;;
19897;SDS011;10111;50.814;4.572;2023-04-01T08:00:20;4.30;;;2.50;;
19897;SDS011;10111;50.814;4.572;2023-04-01T08:08:34;5.87;;;2.60;;
19897;SDS011;10111;50.814;4.572;2023-04-01T08:14:30;3.23;;;2.30;;
19897;SDS011;10111;50.814;4.572;2023-04-01T08:17:19;1.77;;;1.63;;
19897;SDS011;10111;50.814;4.572;2023-04-01T08:22:53;2.53;;;1.40;;
19897;SDS011;10111;50.814;4.572;2023-04-01T08:25:26;1.63;;;1.37;;
19897;SDS011;10111;50.814;4.572;2023-04-01T08:28:03;1.23;;;1.13;;
19897;SDS011;10111;50.814;4.572;2023-04-01T08:30:38;2.77;;;1.47;;
19897;SDS011;10111;50.814;4.572;2023-04-01T08:33:17;1.70;;;1.47;;
19897;SDS011;10111;50.814;4.572;2023-04-01T08:38:22;1.90;;;1.47;;
19897;SDS011;10111;50.814;4.572;2023-04-01T08:49:01;2.47;;;1.93;;
19897;SDS011;10111;50.814;4.572;2023-04-01T09:02:46;2.27;;;1.43;;
19897;SDS011;10111;50.814;4.572;2023-04-01T09:16:44;1.50;;;1.30;;
19897;SDS011;10111;50.814;4.572;2023-04-01T09:25:26;1.77;;;1.00;;
19897;SDS011;10111;50.814;4.572;2023-04-01T09:28:03;1.40;;;1.10;;
19897;SDS011;10111;50.814;4.572;2023-04-01T09:30:48;1.70;;;1.20;;
19897;SDS011;10111;50.814;4.572;2023-04-01T09:45:06;2.13;;;1.67;;
19897;SDS011;10111;50.814;4.572;2023-04-01T09:52:57;4.77;;;2.10;;
19897;SDS011;10111;50.814;4.572;2023-04-01T10:12:16;3.10;;;2.30;;
19897;SDS011;10111;50.814;4.572;2023-04-01T10:54:07;3.03;;;2.00;;
19897;SDS011;10111;50.814;4.572;2023-04-01T11:24:55;4.97;;;3.40;;
19897;SDS011;10111;50.814;4.572;2023-04-01T11:27:15;7.83;;;4.27;;
19897;SDS011;10111;50.814;4.572;2023-04-01T11:32:25;9.93;;;4.87;;
19897;SDS011;10111;50.814;4.572;2023-04-01T11:53:22;6.73;;;5.30;;
19897;SDS011;10111;50.814;4.572;2023-04-01T11:56:45;4.87;;;3.90;;
19897;SDS011;10111;50.814;4.572;2023-04-01T11:59:04;7.07;;;4.37;;
19897;SDS011;10111;50.814;4.572;2023-04-01T12:01:44;7.00;;;5.10;;
19897;SDS011;10111;50.814;4.572;2023-04-01T12:07:14;8.20;;;5.70;;
19897;SDS011;10111;50.814;4.572;2023-04-01T12:10:17;3.77;;;3.30;;
19897;SDS011;10111;50.814;4.572;2023-04-01T12:12:54;8.30;;;5.83;;
19897;SDS011;10111;50.814;4.572;2023-04-01T12:15:29;7.07;;;5.37;;
19897;SDS011;10111;50.814;4.572;2023-04-01T12:21:09;3.20;;;2.90;;
19897;SDS011;10111;50.814;4.572;2023-04-01T12:29:41;4.37;;;2.67;;
19897;SDS011;10111;50.814;4.572;2023-04-01T12:56:33;3.77;;;2.47;;
19897;SDS011;10111;50.814;4.572;2023-04-01T13:02:06;4.53;;;2.93;;
19897;SDS011;10111;50.814;4.572;2023-04-01T13:05:01;3.83;;;2.80;;
19897;SDS011;10111;50.814;4.572;2023-04-01T13:15:54;3.23;;;2.87;;
19897;SDS011;10111;50.814;4.572;2023-04-01T13:19:12;4.07;;;2.93;;
19897;SDS011;10111;50.814;4.572;2023-04-01T13:21:36;2.77;;;2.23;;
19897;SDS011;10111;50.814;4.572;2023-04-01T13:33:04;3.03;;;2.27;;
19897;SDS011;10111;50.814;4.572;2023-04-01T13:43:52;2.77;;;2.37;;
19897;SDS011;10111;50.814;4.572;2023-04-01T13:49:53;3.50;;;2.23;;
19897;SDS011;10111;50.814;4.572;2023-04-01T14:23:02;2.13;;;1.93;;
19897;SDS011;10111;50.814;4.572;2023-04-01T14:26:54;1.40;;;1.30;;
19897;SDS011;10111;50.814;4.572;2023-04-01T14:28:51;2.13;;;1.93;;
19897;SDS011;10111;50.814;4.572;2023-04-01T14:31:53;1.80;;;1.60;;
19897;SDS011;10111;50.814;4.572;2023-04-01T14:51:18;2.13;;;1.90;;
19897;SDS011;10111;50.814;4.572;2023-04-01T14:56:42;2.30;;;1.70;;
19897;SDS011;10111;50.814;4.572;2023-04-01T15:20:41;1.40;;;1.27;;
19897;SDS011;10111;50.814;4.572;2023-04-01T15:26:19;1.83;;;1.53;;
19897;SDS011;10111;50.814;4.572;2023-04-01T15:31:49;1.67;;;1.27;;
19897;SDS011;10111;50.814;4.572;2023-04-01T15:34:29;1.90;;;1.73;;
19897;SDS011;10111;50.814;4.572;2023-04-01T15:47:42;1.40;;;1.30;;
19897;SDS011;10111;50.814;4.572;2023-04-01T15:55:43;1.90;;;1.50;;
19897;SDS011;10111;50.814;4.572;2023-04-01T16:15:20;2.53;;;1.97;;
19897;SDS011;10111;50.814;4.572;2023-04-01T16:20:32;1.70;;;1.60;;
19897;SDS011;10111;50.814;4.572;2023-04-01T16:23:24;1.60;;;1.50;;
19897;SDS011;10111;50.814;4.572;2023-04-01T16:28:44;2.13;;;1.70;;
19897;SDS011;10111;50.814;4.572;2023-04-01T16:34:16;3.40;;;2.40;;
19897;SDS011;10111;50.814;4.572;2023-04-01T16:37:07;3.17;;;2.33;;
19897;SDS011;10111;50.814;4.572;2023-04-01T16:42:51;1.90;;;1.80;;
19897;SDS011;10111;50.814;4.572;2023-04-01T16:47:50;4.17;;;1.90;;
19897;SDS011;10111;50.814;4.572;2023-04-01T16:50:21;3.07;;;2.00;;
19897;SDS011;10111;50.814;4.572;2023-04-01T16:55:18;3.83;;;2.23;;
19897;SDS011;10111;50.814;4.572;2023-04-01T16:57:50;2.37;;;2.17;;
19897;SDS011;10111;50.814;4.572;2023-04-01T17:42:48;3.57;;;3.27;;
19897;SDS011;10111;50.814;4.572;2023-04-01T17:45:55;5.43;;;4.50;;
19897;SDS011;10111;50.814;4.572;2023-04-01T17:54:03;6.83;;;4.13;;
19897;SDS011;10111;50.814;4.572;2023-04-01T17:57:02;3.53;;;3.23;;
19897;SDS011;10111;50.814;4.572;2023-04-01T18:05:20;4.07;;;3.67;;
19897;SDS011;10111;50.814;4.572;2023-04-01T18:13:41;4.30;;;3.87;;
19897;SDS011;10111;50.814;4.572;2023-04-01T18:18:53;3.53;;;3.23;;
19897;SDS011;10111;50.814;4.572;2023-04-01T18:21:53;4.73;;;3.67;;
19897;SDS011;10111;50.814;4.572;2023-04-01T18:24:43;3.97;;;3.57;;
19897;SDS011;10111;50.814;4.572;2023-04-01T18:27:38;5.30;;;4.80;;
19897;SDS011;10111;50.814;4.572;2023-04-01T18:30:11;4.40;;;4.00;;
19897;SDS011;10111;50.814;4.572;2023-04-01T18:40:30;6.03;;;5.53;;
19897;SDS011;10111;50.814;4.572;2023-04-01T18:48:30;6.47;;;5.73;;
19897;SDS011;10111;50.814;4.572;2023-04-01T18:51:14;6.67;;;5.57;;
19897;SDS011;10111;50.814;4.572;2023-04-01T18:54:02;7.97;;;6.03;;
19897;SDS011;10111;50.814;4.572;2023-04-01T18:56:39;9.60;;;6.67;;
19897;SDS011;10111;50.814;4.572;2023-04-01T18:59:14;10.27;;;6.83;;
19897;SDS011;10111;50.814;4.572;2023-04-01T19:13:27;10.87;;;7.33;;
19897;SDS011;10111;50.814;4.572;2023-04-01T19:21:47;16.70;;;13.13;;
19897;SDS011;10111;50.814;4.572;2023-04-01T19:38:15;10.93;;;8.67;;
19897;SDS011;10111;50.814;4.572;2023-04-01T19:41:14;11.73;;;8.40;;
19897;SDS011;10111;50.814;4.572;2023-04-01T19:43:56;10.93;;;8.27;;
19897;SDS011;10111;50.814;4.572;2023-04-01T19:52:13;16.67;;;13.17;;
19897;SDS011;10111;50.814;4.572;2023-04-01T19:55:07;17.50;;;15.50;;
19897;SDS011;10111;50.814;4.572;2023-04-01T19:57:50;14.53;;;10.47;;
19897;SDS011;10111;50.814;4.572;2023-04-01T20:00:42;11.50;;;8.53;;
19897;SDS011;10111;50.814;4.572;2023-04-01T20:06:38;13.63;;;8.27;;
19897;SDS011;10111;50.814;4.572;2023-04-01T20:14:41;11.67;;;7.23;;
19897;SDS011;10111;50.814;4.572;2023-04-01T20:17:22;10.70;;;6.73;;
19897;SDS011;10111;50.814;4.572;2023-04-01T20:20:01;12.57;;;7.67;;
19897;SDS011;10111;50.814;4.572;2023-04-01T20:25:22;12.83;;;8.00;;
19897;SDS011;10111;50.814;4.572;2023-04-01T20:36:06;13.03;;;7.80;;
19897;SDS011;10111;50.814;4.572;2023-04-01T20:41:33;10.90;;;7.83;;
19897;SDS011;10111;50.814;4.572;2023-04-01T20:52:56;12.27;;;7.27;;
19897;SDS011;10111;50.814;4.572;2023-04-01T21:04:30;14.60;;;9.73;;
19897;SDS011;10111;50.814;4.572;2023-04-01T21:07:28;16.00;;;9.00;;
19897;SDS011;10111;50.814;4.572;2023-04-01T21:13:10;10.07;;;7.33;;
19897;SDS011;10111;50.814;4.572;2023-04-01T21:27:20;17.67;;;13.43;;
19897;SDS011;10111;50.814;4.572;2023-04-01T21:30:23;15.90;;;11.73;;
19897;SDS011;10111;50.814;4.572;2023-04-01T21:36:03;20.07;;;12.37;;
19897;SDS011;10111;50.814;4.572;2023-04-01T21:50:42;16.07;;;10.53;;
19897;SDS011;10111;50.814;4.572;2023-04-01T21:53:23;15.60;;;9.97;;
19897;SDS011;10111;50.814;4.572;2023-04-01T22:07:15;10.43;;;7.07;;
19897;SDS011;10111;50.814;4.572;2023-04-01T22:09:49;12.67;;;8.60;;
19897;SDS011;10111;50.814;4.572;2023-04-01T22:12:32;11.60;;;7.00;;
19897;SDS011;10111;50.814;4.572;2023-04-01T22:20:44;7.17;;;5.63;;
19897;SDS011;10111;50.814;4.572;2023-04-01T22:26:37;6.03;;;4.37;;
19897;SDS011;10111;50.814;4.572;2023-04-01T22:29:07;5.87;;;5.27;;
19897;SDS011;10111;50.814;4.572;2023-04-01T22:37:05;12.03;;;8.40;;
19897;SDS011;10111;50.814;4.572;2023-04-01T22:40:07;12.13;;;8.57;;
19897;SDS011;10111;50.814;4.572;2023-04-01T22:42:41;16.97;;;10.60;;
19897;SDS011;10111;50.814;4.572;2023-04-01T22:50:25;16.30;;;10.93;;
19897;SDS011;10111;50.814;4.572;2023-04-01T22:55:42;17.93;;;11.77;;
19897;SDS011;10111;50.814;4.572;2023-04-01T22:58:16;19.13;;;11.90;;
19897;SDS011;10111;50.814;4.572;2023-04-01T23:00:47;16.03;;;9.83;;
19897;SDS011;10111;50.814;4.572;2023-04-01T23:06:18;14.67;;;9.33;;
19897;SDS011;10111;50.814;4.572;2023-04-01T23:11:57;13.37;;;8.50;;
19897;SDS011;10111;50.814;4.572;2023-04-01T23:14:38;13.83;;;8.10;;
19897;SDS011;10111;50.814;4.572;2023-04-01T23:17:57;11.57;;;7.40;;
19897;SDS011;10111;50.814;4.572;2023-04-01T23:22:27;11.47;;;8.30;;
19897;SDS011;10111;50.814;4.572;2023-04-01T23:35:52;14.47;;;8.67;;
19897;SDS011;10111;50.814;4.572;2023-04-01T23:38:41;13.77;;;8.60;;
19897;SDS011;10111;50.814;4.572;2023-04-01T23:41:25;17.03;;;9.83;;
19897;SDS011;10111;50.814;4.572;2023-04-01T23:43:58;15.40;;;10.23;;
19897;SDS011;10111;50.814;4.572;2023-04-01T23:46:25;14.87;;;10.27;;
19897;SDS011;10111;50.814;4.572;2023-04-01T23:48:51;18.70;;;10.60;;
19897;SDS011;10111;50.814;4.572;2023-04-01T23:53:47;18.37;;;11.17;;
19897;SDS011;10111;50.814;4.572;2023-04-01T23:56:20;21.37;;;12.43;;
19897;SDS011;10111;50.814;4.572;2023-04-01T23:58:47;20.63;;;13.30;;
